createdAt,value
2023-04-11T00:01:51.253Z,7.54
2023-04-11T00:06:53.499Z,7.47
2023-04-11T00:11:56.825Z,7.51
2023-04-11T00:17:01.069Z,7.35
2023-04-11T00:22:04.995Z,7.43
2023-04-11T00:27:07.209Z,7.39
2023-04-11T00:32:09.428Z,7.21
2023-04-11T00:37:12.814Z,7.22
2023-04-11T00:42:14.893Z,7.07
2023-04-11T00:47:17.031Z,6.99
2023-04-11T00:52:19.433Z,6.96
2023-04-11T00:57:22.812Z,7.07
2023-04-11T01:02:25.207Z,6.92
2023-04-11T01:07:28.390Z,6.84
2023-04-11T01:12:30.767Z,6.84
2023-04-11T01:17:33.914Z,6.80
2023-04-11T01:22:38.240Z,6.78
2023-04-11T01:27:42.276Z,6.64
2023-04-11T01:32:44.464Z,6.61
2023-04-11T01:37:46.554Z,6.57
2023-04-11T01:42:49.197Z,6.40
2023-04-11T01:47:52.763Z,6.39
2023-04-11T01:52:54.944Z,6.37
2023-04-11T01:57:57.012Z,6.28
2023-04-11T02:02:59.233Z,6.30
2023-04-11T02:08:01.334Z,6.29
2023-04-11T02:13:03.559Z,6.32
2023-04-11T02:18:06.940Z,6.10
2023-04-11T02:23:09.088Z,6.03
2023-04-11T02:28:11.251Z,5.96
2023-04-11T02:33:13.889Z,5.93
2023-04-11T02:38:15.994Z,6.06
2023-04-11T02:43:18.069Z,5.96
2023-04-11T02:48:20.296Z,5.92
2023-04-11T02:53:22.413Z,5.69
2023-04-11T02:58:26.026Z,5.79
2023-04-11T03:03:28.143Z,5.73
2023-04-11T03:08:30.402Z,5.79
2023-04-11T03:13:32.952Z,5.80
2023-04-11T03:18:35.382Z,5.53
2023-04-11T03:23:38.945Z,5.47
2023-04-11T03:28:41.042Z,5.54
2023-04-11T03:33:44.981Z,5.57
2023-04-11T03:38:47.057Z,5.48
2023-04-11T03:43:49.107Z,5.68
2023-04-11T03:48:51.349Z,5.65
2023-04-11T03:53:53.555Z,5.69
2023-04-11T03:58:56.081Z,5.70
2023-04-11T04:04:00.681Z,5.78
2023-04-11T04:09:04.294Z,5.67
2023-04-11T04:14:06.372Z,5.70
2023-04-11T04:19:08.422Z,5.59
2023-04-11T04:24:12.321Z,5.59
2023-04-11T04:29:14.402Z,5.51
2023-04-11T04:34:21.986Z,5.70
2023-04-11T04:39:25.466Z,5.69
2023-04-11T04:44:27.764Z,5.69
2023-04-11T04:49:30.333Z,5.70
2023-04-11T04:54:32.932Z,5.90
2023-04-11T04:59:35.049Z,6.00
2023-04-11T05:04:37.345Z,6.07
2023-04-11T05:09:39.741Z,6.16
2023-04-11T05:14:42.221Z,6.28
2023-04-11T05:19:44.504Z,6.53
2023-04-11T05:24:46.582Z,6.68
2023-04-11T05:29:48.647Z,6.78
2023-04-11T05:34:58.178Z,6.96
2023-04-11T05:40:01.283Z,7.24
2023-04-11T05:45:03.505Z,7.51
2023-04-11T05:50:06.298Z,7.66
2023-04-11T05:55:09.348Z,7.98
2023-04-11T06:00:13.068Z,8.28
2023-04-11T06:05:16.724Z,8.40
2023-04-11T06:10:19.049Z,8.64
2023-04-11T06:15:22.578Z,8.77
2023-04-11T06:20:25.311Z,9.05
2023-04-11T06:25:27.450Z,9.07
2023-04-11T06:30:29.620Z,9.17
2023-04-11T06:35:31.740Z,9.43
2023-04-11T06:40:34.040Z,9.64
2023-04-11T06:45:36.163Z,9.76
2023-04-11T06:50:41.817Z,9.97
2023-04-11T06:55:43.872Z,10.15
2023-04-11T07:00:46.132Z,10.32
2023-04-11T07:05:48.337Z,10.36
2023-04-11T07:10:50.812Z,10.51
2023-04-11T07:15:52.906Z,10.78
2023-04-11T07:20:55.489Z,11.08
2023-04-11T07:25:57.789Z,11.54
2023-04-11T07:30:59.869Z,12.06
2023-04-11T07:36:01.951Z,12.37
2023-04-11T07:41:05.662Z,12.67
2023-04-11T07:46:07.973Z,12.82
2023-04-11T07:51:10.653Z,12.92
2023-04-11T07:56:13.571Z,13.05
2023-04-11T08:01:23.946Z,13.07
2023-04-11T08:06:26.585Z,13.42
2023-04-11T08:11:28.644Z,13.67
2023-04-11T08:16:30.941Z,13.85
2023-04-11T08:21:33.490Z,13.90
2023-04-11T08:26:35.940Z,14.20
2023-04-11T08:31:46.922Z,14.06
2023-04-11T08:36:49.026Z,13.95
2023-04-11T08:41:51.459Z,14.08
2023-04-11T08:46:53.652Z,14.51
2023-04-11T08:51:56.355Z,14.74
2023-04-11T08:56:58.400Z,14.66
2023-04-11T09:02:09.367Z,14.98
2023-04-11T09:07:11.984Z,15.03
2023-04-11T09:12:14.160Z,15.05
2023-04-11T09:17:17.140Z,15.22
2023-04-11T09:22:19.309Z,15.13
2023-04-11T09:27:24.512Z,15.05
2023-04-11T09:32:34.469Z,15.63
2023-04-11T09:37:57.806Z,15.63
2023-04-11T09:43:04.226Z,15.77
2023-04-11T09:48:06.419Z,15.84
2023-04-11T09:53:11.056Z,16.07
2023-04-11T09:58:13.494Z,16.38
2023-04-11T10:03:16.739Z,16.91
2023-04-11T10:08:32.791Z,17.23
2023-04-11T10:13:39.341Z,17.52
2023-04-11T10:18:50.655Z,17.87
2023-04-11T10:24:20.175Z,18.35
2023-04-11T10:29:28.127Z,18.63
2023-04-11T10:34:31.886Z,19.54
2023-04-11T10:40:00.752Z,20.14
2023-04-11T10:45:14.960Z,20.34
2023-04-11T10:50:26.257Z,20.08
2023-04-11T10:55:30.050Z,20.61
2023-04-11T11:01:00.123Z,21.00
2023-04-11T11:06:07.660Z,20.79
2023-04-11T11:11:11.512Z,21.09
2023-04-11T11:16:16.618Z,20.82
2023-04-11T11:21:27.205Z,21.10
2023-04-11T11:26:40.936Z,21.51
2023-04-11T11:31:48.100Z,21.03
2023-04-11T11:36:50.639Z,21.36
2023-04-11T11:41:53.576Z,21.58
2023-04-11T11:47:09.280Z,21.06
2023-04-11T11:52:12.149Z,20.85
2023-04-11T11:57:23.243Z,20.10
2023-04-11T12:02:29.234Z,20.77
2023-04-11T12:07:33.326Z,21.15
2023-04-11T12:12:37.661Z,21.01
2023-04-11T12:17:40.874Z,20.28
2023-04-11T12:22:43.176Z,20.57
2023-04-11T12:27:47.157Z,20.78
2023-04-11T12:32:49.402Z,21.42
2023-04-11T12:37:51.605Z,22.45
2023-04-11T12:42:57.164Z,22.28
2023-04-11T12:47:59.541Z,22.25
2023-04-11T12:53:01.666Z,22.27
2023-04-11T12:58:04.279Z,21.41
2023-04-11T13:03:06.750Z,20.62
2023-04-11T13:08:09.135Z,20.22
2023-04-11T13:13:17.902Z,19.80
2023-04-11T13:18:20.937Z,20.03
2023-04-11T13:23:22.977Z,20.06
2023-04-11T13:28:25.142Z,19.55
2023-04-11T13:33:27.281Z,19.08
2023-04-11T13:38:29.454Z,19.13
2023-04-11T13:43:31.643Z,19.30
2023-04-11T13:48:33.765Z,19.16
2023-04-11T13:53:36.064Z,18.91
2023-04-11T13:58:39.007Z,18.67
2023-04-11T14:03:43.089Z,18.42
2023-04-11T14:08:47.348Z,18.25
2023-04-11T14:13:50.401Z,18.11
2023-04-11T14:18:52.542Z,18.05
2023-04-11T14:23:55.108Z,17.88
2023-04-11T14:28:57.440Z,17.67
2023-04-11T14:33:59.689Z,17.62
2023-04-11T14:39:02.071Z,17.24
2023-04-11T14:44:04.180Z,17.00
2023-04-11T14:49:07.418Z,16.64
2023-04-11T14:54:09.534Z,16.07
2023-04-11T14:59:11.782Z,15.66
2023-04-11T15:04:14.588Z,15.51
2023-04-11T15:09:20.158Z,15.34
2023-04-11T15:14:29.232Z,15.13
2023-04-11T15:19:31.548Z,14.86
2023-04-11T15:24:33.609Z,14.48
2023-04-11T15:29:36.485Z,14.01
2023-04-11T15:34:40.254Z,13.76
2023-04-11T15:39:42.349Z,13.25
2023-04-11T15:44:44.971Z,12.94
2023-04-11T15:49:47.181Z,12.58
2023-04-11T15:54:49.252Z,12.40
2023-04-11T15:59:52.555Z,12.13
2023-04-11T16:04:55.861Z,11.92
2023-04-11T16:09:58.232Z,11.68
2023-04-11T16:15:00.440Z,11.53
2023-04-11T16:20:04.561Z,11.45
2023-04-11T16:25:07.421Z,11.42
2023-04-11T16:30:09.852Z,11.40
2023-04-11T16:35:12.045Z,11.45
2023-04-11T16:40:14.386Z,11.53
2023-04-11T16:45:16.786Z,11.42
2023-04-11T16:50:19.011Z,11.45
2023-04-11T16:55:21.178Z,11.40
2023-04-11T17:00:24.085Z,11.41
2023-04-11T17:05:26.172Z,11.34
2023-04-11T17:10:28.252Z,11.52
2023-04-11T17:15:30.769Z,11.34
2023-04-11T17:20:32.880Z,11.43
2023-04-11T17:25:34.982Z,11.41
2023-04-11T17:30:37.832Z,11.41
2023-04-11T17:35:40.042Z,11.45
2023-04-11T17:40:42.411Z,11.41
2023-04-11T17:45:44.571Z,11.28
2023-04-11T17:50:46.668Z,11.25
2023-04-11T17:55:49.762Z,11.19
2023-04-11T18:00:56.023Z,11.22
2023-04-11T18:05:59.869Z,11.30
2023-04-11T18:11:03.432Z,11.28
2023-04-11T18:16:05.778Z,11.24
2023-04-11T18:21:08.232Z,11.19
2023-04-11T18:26:10.467Z,11.06
2023-04-11T18:31:12.731Z,10.88
2023-04-11T18:36:14.972Z,10.77
2023-04-11T18:41:18.139Z,10.64
2023-04-11T18:46:20.824Z,10.56
2023-04-11T18:51:23.212Z,10.52
2023-04-11T18:56:26.699Z,10.42
2023-04-11T19:01:29.346Z,10.43
2023-04-11T19:06:31.505Z,10.29
2023-04-11T19:11:36.089Z,10.18
2023-04-11T19:16:38.336Z,10.20
2023-04-11T19:21:41.916Z,10.02
2023-04-11T19:26:44.133Z,9.93
2023-04-11T19:31:46.293Z,9.96
2023-04-11T19:36:48.425Z,9.92
2023-04-11T19:41:51.278Z,9.91
2023-04-11T19:46:53.372Z,9.84
2023-04-11T19:51:55.737Z,9.79
2023-04-11T19:56:57.877Z,9.65
2023-04-11T20:02:01.696Z,9.54
2023-04-11T20:07:04.303Z,9.51
2023-04-11T20:12:06.718Z,9.41
2023-04-11T20:17:09.100Z,9.38
2023-04-11T20:22:13.756Z,9.37
2023-04-11T20:27:16.394Z,9.38
2023-04-11T20:32:19.144Z,9.37
2023-04-11T20:37:22.582Z,9.46
2023-04-11T20:42:25.856Z,9.35
2023-04-11T20:47:27.949Z,9.35
2023-04-11T20:52:31.177Z,9.18
2023-04-11T20:57:36.282Z,9.22
2023-04-11T21:02:38.817Z,9.03
2023-04-11T21:07:42.237Z,8.97
2023-04-11T21:12:51.097Z,8.87
2023-04-11T21:17:53.610Z,8.86
2023-04-11T21:22:55.933Z,8.67
2023-04-11T21:27:58.070Z,8.45
2023-04-11T21:33:00.363Z,8.37
2023-04-11T21:38:02.458Z,8.29
2023-04-11T21:43:05.643Z,8.07
2023-04-11T21:48:07.766Z,8.03
2023-04-11T21:53:09.913Z,8.00
2023-04-11T21:58:22.285Z,7.92
2023-04-11T22:03:30.782Z,7.87
2023-04-11T22:08:33.156Z,7.82
2023-04-11T22:13:39.758Z,7.81
2023-04-11T22:18:47.484Z,7.86
2023-04-11T22:23:57.286Z,7.80
2023-04-11T22:29:03.247Z,7.74
2023-04-11T22:34:08.128Z,7.65
2023-04-11T22:39:10.361Z,7.51
2023-04-11T22:44:12.395Z,7.33
2023-04-11T22:49:14.716Z,7.19
2023-04-11T22:54:16.779Z,7.13
2023-04-11T22:59:18.843Z,7.13
2023-04-11T23:04:21.502Z,7.05
2023-04-11T23:09:23.829Z,6.88
2023-04-11T23:14:31.132Z,6.80
2023-04-11T23:19:34.138Z,6.70
2023-04-11T23:24:36.290Z,6.63
2023-04-11T23:29:39.149Z,6.62
2023-04-11T23:34:41.576Z,6.70
2023-04-11T23:39:43.719Z,6.69
2023-04-11T23:44:46.505Z,6.55
2023-04-11T23:49:48.553Z,6.59
2023-04-11T23:54:50.844Z,6.52
2023-04-11T23:59:52.944Z,6.43
